ěÝzenÝ letovÚho provozu ╚eskÚ republiky
Letiste: LKCS Aktualizace: 06.07.2022 06:00:33  UTC
 METAR LKCS 06.07. 06:00 ...
METAR LKCS 060600Z AUTO 31007KT CAVOK 17/14 Q1021=